sim
Sign-in with your pilot id or email,
or register
Callsign
Passwort

Schedule Details

Flight Number: UAE9819 (B)
Departure: Mumbai Chhatrapati Shivaji International Airport (VABB) at 18:25
Arrival: Ahmedabad International Airport (VAAH) at 19:40
Route: Emirates Cargo Schedule. Enter filed route here before submitting Pirep.

Weather Information
Getting current METAR information for VABB 191830Z 27004KT 3500 HZ FEW020 SCT025 28/25 Q1010 NOSIG
Getting current METAR information for VAAH 191830Z 24006KT 4000 HZ SCT020 SCT080 28/26 Q1009 NOSIG

Schedule Frequency

Route Map